Time;durP1;ratioP1;P1;durP2;ratioP2;P2;SDS_P1;SDS_P2;PMS_P1;PMS_P2;Temp;Humidity;BMP_temperature;BMP_pressure;BME280_temperature;BME280_humidity;BME280_pressure;Samples;Min_cycle;Max_cycle;Signal;HPM_P1;HPM_P2
2024/03/25 00:02:18;;;;;;;8.55;1.70;;;15.20;81.30;;;;;;4169666;28;20087;-47
2024/03/25 00:04:58;;;;;;;9.68;1.50;;;15.10;81.40;;;;;;4169381;28;20614;-45
2024/03/25 00:07:39;;;;;;;7.55;1.73;;;15.10;81.00;;;;;;4169523;28;20052;-45
2024/03/25 00:10:20;;;;;;;7.70;1.98;;;15.10;81.40;;;;;;4169435;28;20076;-45
2024/03/25 00:13:00;;;;;;;12.63;2.10;;;15.10;81.10;;;;;;4169080;28;20106;-46
2024/03/25 00:15:41;;;;;;;7.03;1.45;;;15.10;81.40;;;;;;4180078;28;20055;-41
2024/03/25 00:18:20;;;;;;;8.57;2.03;;;15.10;81.80;;;;;;4159769;28;20057;-41
2024/03/25 00:21:00;;;;;;;7.25;1.48;;;15.10;81.80;;;;;;4125286;28;20287;-41
2024/03/25 00:23:40;;;;;;;7.30;1.77;;;15.10;81.90;;;;;;4135688;28;20131;-41
2024/03/25 00:26:20;;;;;;;6.30;1.67;;;15.10;81.90;;;;;;4136640;28;20057;-41
2024/03/25 00:28:59;;;;;;;7.95;1.77;;;15.10;81.60;;;;;;4137101;28;20053;-41
2024/03/25 00:31:39;;;;;;;9.38;1.67;;;15.10;82.20;;;;;;4153136;28;20052;-41
2024/03/25 00:34:18;;;;;;;7.15;1.45;;;15.10;81.90;;;;;;4153575;28;20136;-41
2024/03/25 00:36:58;;;;;;;7.47;2.00;;;15.00;81.40;;;;;;4152299;28;20057;-41
2024/03/25 00:39:40;;;;;;;8.63;1.80;;;15.00;81.60;;;;;;4152504;28;20523;-47
2024/03/25 00:42:19;;;;;;;4.25;1.55;;;15.00;81.50;;;;;;4152365;28;20052;-41
2024/03/25 00:44:59;;;;;;;4.93;2.10;;;15.00;81.30;;;;;;4147007;28;20530;-41
2024/03/25 00:47:38;;;;;;;6.97;1.77;;;15.00;81.50;;;;;;4162138;28;20399;-41
2024/03/25 00:50:19;;;;;;;7.85;1.90;;;15.00;83.00;;;;;;4156822;28;20051;-41
2024/03/25 00:52:58;;;;;;;10.35;2.20;;;15.00;82.70;;;;;;4164116;28;20122;-46
2024/03/25 00:55:39;;;;;;;9.18;2.10;;;15.00;82.10;;;;;;4156255;28;20775;-42
2024/03/25 00:58:18;;;;;;;10.00;1.85;;;15.00;82.50;;;;;;4165830;28;20146;-41
2024/03/25 01:00:58;;;;;;;18.45;2.58;;;15.00;82.30;;;;;;4170108;28;20098;-41
2024/03/25 01:03:37;;;;;;;10.07;2.05;;;15.00;82.40;;;;;;4168841;28;20160;-47
2024/03/25 01:06:17;;;;;;;10.20;1.88;;;15.00;82.60;;;;;;4162937;28;20060;-46
2024/03/25 01:08:57;;;;;;;9.98;2.10;;;15.00;82.70;;;;;;4171889;28;20060;-41
2024/03/25 01:11:38;;;;;;;14.80;2.20;;;15.00;82.80;;;;;;4156756;28;20056;-41
2024/03/25 01:14:17;;;;;;;;;;;15.00;82.60;;;;;;4166539;28;20052;-41
2024/03/25 01:16:57;;;;;;;8.43;1.80;;;14.90;82.40;;;;;;4162782;28;20339;-46
2024/03/25 01:19:36;;;;;;;12.10;2.20;;;14.90;83.80;;;;;;4144197;28;20073;-46
2024/03/25 01:22:16;;;;;;;11.63;2.08;;;14.90;83.20;;;;;;4139182;28;20145;-46
2024/03/25 01:24:55;;;;;;;8.80;1.92;;;14.90;84.10;;;;;;4132100;28;20092;-47
2024/03/25 01:27:36;;;;;;;9.88;1.90;;;14.90;83.20;;;;;;4130497;28;20136;-46
2024/03/25 01:30:15;;;;;;;13.65;2.13;;;14.90;82.90;;;;;;4154537;28;20464;-49
2024/03/25 01:32:55;;;;;;;8.52;1.85;;;14.90;83.00;;;;;;4155088;28;20147;-48
2024/03/25 01:35:34;;;;;;;8.25;2.25;;;14.90;83.10;;;;;;4155319;28;20506;-46
2024/03/25 01:38:14;;;;;;;8.98;1.95;;;14.90;83.20;;;;;;4142836;28;20056;-48
2024/03/25 01:40:53;;;;;;;13.00;2.75;;;14.90;84.30;;;;;;4143113;28;21111;-49
2024/03/25 01:43:34;;;;;;;9.55;2.00;;;14.90;84.60;;;;;;4156016;28;20156;-47
2024/03/25 01:46:14;;;;;;;7.93;2.30;;;14.90;83.70;;;;;;4162312;28;20119;-50
2024/03/25 01:48:58;;;;;;;12.52;2.13;;;14.90;83.70;;;;;;4169573;28;20060;-46
2024/03/25 01:51:38;;;;;;;5.90;1.73;;;14.80;83.20;;;;;;4171065;28;20102;-47
2024/03/25 01:54:19;;;;;;;13.77;2.42;;;14.80;83.50;;;;;;4170532;28;20504;-47
2024/03/25 01:56:59;;;;;;;6.47;1.60;;;14.90;83.70;;;;;;4170815;28;20125;-46
2024/03/25 01:59:39;;;;;;;8.50;1.80;;;14.80;83.90;;;;;;4158665;28;20140;-45
2024/03/25 02:02:20;;;;;;;7.65;1.52;;;14.80;83.30;;;;;;4153829;28;20067;-46
2024/03/25 02:04:59;;;;;;;8.48;1.70;;;14.80;83.10;;;;;;4153894;28;20053;-46
2024/03/25 02:07:41;;;;;;;7.97;1.60;;;14.80;83.20;;;;;;4154478;28;20503;-46
2024/03/25 02:10:21;;;;;;;6.25;1.33;;;14.80;83.50;;;;;;4153408;28;20099;-44
2024/03/25 02:13:01;;;;;;;7.32;1.50;;;14.80;83.50;;;;;;4152718;28;20099;-47
2024/03/25 02:15:43;;;;;;;7.72;1.85;;;14.80;83.00;;;;;;4147576;28;20136;-46
2024/03/25 02:18:23;;;;;;;6.47;1.70;;;14.80;83.30;;;;;;4157718;28;20503;-46
2024/03/25 02:21:02;;;;;;;4.68;2.08;;;14.80;83.00;;;;;;4168887;28;20052;-46
2024/03/25 02:23:45;;;;;;;16.15;1.92;;;14.80;83.30;;;;;;4142753;28;20515;-44
2024/03/25 02:26:26;;;;;;;8.38;1.55;;;14.80;83.00;;;;;;4153681;28;20068;-48
2024/03/25 02:29:06;;;;;;;10.60;1.75;;;14.80;83.10;;;;;;4153595;28;20095;-47
2024/03/25 02:31:46;;;;;;;7.40;2.00;;;14.80;82.90;;;;;;4149140;28;20401;-47
2024/03/25 02:34:26;;;;;;;8.30;1.63;;;14.80;83.10;;;;;;4152895;28;20127;-47
2024/03/25 02:37:05;;;;;;;9.70;1.83;;;14.80;83.10;;;;;;4166567;28;20060;-47
2024/03/25 02:39:45;;;;;;;6.43;1.67;;;14.80;83.00;;;;;;4167647;28;20133;-49
2024/03/25 02:42:27;;;;;;;4.03;1.52;;;14.80;83.20;;;;;;4152841;28;20051;-46
2024/03/25 02:45:07;;;;;;;6.67;1.40;;;14.70;83.10;;;;;;4153744;28;20115;-48
2024/03/25 02:47:47;;;;;;;7.45;1.73;;;14.70;83.00;;;;;;4153659;28;20631;-48
2024/03/25 02:50:27;;;;;;;10.75;2.13;;;14.70;83.10;;;;;;4166818;28;20735;-48
2024/03/25 02:53:06;;;;;;;9.25;1.90;;;14.70;82.90;;;;;;4159658;28;20112;-47
2024/03/25 02:55:46;;;;;;;6.75;1.38;;;14.70;83.40;;;;;;4153501;28;20131;-47
2024/03/25 02:58:27;;;;;;;7.68;2.22;;;14.80;83.20;;;;;;4153576;28;20051;-48
2024/03/25 03:01:07;;;;;;;7.22;1.70;;;14.70;82.60;;;;;;4153051;28;20059;-46
2024/03/25 03:03:47;;;;;;;8.98;2.60;;;14.70;82.90;;;;;;4153503;28;20056;-49
2024/03/25 03:06:25;;;;;;;8.23;1.58;;;14.80;83.80;;;;;;4151381;28;20388;-46
2024/03/25 03:09:05;;;;;;;10.98;1.80;;;14.90;84.10;;;;;;4146904;28;20057;-47
2024/03/25 03:11:44;;;;;;;8.20;1.63;;;15.00;84.00;;;;;;4152681;28;20159;-46
2024/03/25 03:14:26;;;;;;;4.63;1.55;;;15.00;83.40;;;;;;4144542;28;20412;-49
2024/03/25 03:17:05;;;;;;;7.35;1.50;;;15.10;83.00;;;;;;4147225;28;20104;-46
2024/03/25 03:19:46;;;;;;;7.82;1.63;;;15.10;82.90;;;;;;4153773;28;20052;-46
2024/03/25 03:22:25;;;;;;;7.80;1.90;;;15.10;82.70;;;;;;4153150;28;20180;-46
2024/03/25 03:25:06;;;;;;;6.60;1.50;;;15.10;83.00;;;;;;4153555;28;20107;-44
2024/03/25 03:27:45;;;;;;;3.57;1.33;;;15.10;82.90;;;;;;4153147;28;20072;-48
2024/03/25 03:30:26;;;;;;;8.80;1.58;;;15.10;83.30;;;;;;4152466;28;20371;-46
2024/03/25 03:33:05;;;;;;;6.20;1.52;;;15.20;83.50;;;;;;4153217;28;20071;-45
2024/03/25 03:35:45;;;;;;;10.05;1.52;;;15.30;82.90;;;;;;4151183;28;20500;-46
2024/03/25 03:38:24;;;;;;;8.10;1.60;;;15.30;83.00;;;;;;4151775;28;20111;-45
2024/03/25 03:41:04;;;;;;;7.93;1.70;;;15.30;82.80;;;;;;4152879;28;20505;-45
2024/03/25 03:43:43;;;;;;;4.32;1.40;;;15.40;82.80;;;;;;4149684;28;20786;-47
2024/03/25 03:46:25;;;;;;;11.57;2.10;;;15.40;82.60;;;;;;4140070;28;20057;-47
2024/03/25 03:49:04;;;;;;;5.20;1.70;;;15.40;82.60;;;;;;4154927;28;20542;-41
2024/03/25 03:51:44;;;;;;;7.70;1.20;;;15.40;82.60;;;;;;4168079;28;20430;-41
2024/03/25 03:54:23;;;;;;;8.63;1.98;;;15.40;82.70;;;;;;4154082;28;20184;-41
2024/03/25 03:57:04;;;;;;;7.75;1.83;;;15.40;82.90;;;;;;4153193;28;20580;-41
2024/03/25 03:59:43;;;;;;;9.07;1.50;;;15.50;82.80;;;;;;4153540;28;20048;-41
2024/03/25 04:02:26;;;;;;;7.05;2.05;;;15.50;82.90;;;;;;4153688;28;20087;-41
2024/03/25 04:05:06;;;;;;;10.00;2.25;;;15.50;84.00;;;;;;4154708;28;20099;-41
2024/03/25 04:07:46;;;;;;;9.73;2.22;;;15.60;83.10;;;;;;4168250;28;20438;-42
2024/03/25 04:10:27;;;;;;;5.68;1.00;;;15.70;83.80;;;;;;4169870;28;20051;-41
2024/03/25 04:13:08;;;;;;;5.30;1.48;;;15.70;82.60;;;;;;4161688;28;20183;-42
2024/03/25 04:15:48;;;;;;;7.00;1.83;;;15.70;82.20;;;;;;4146381;28;20057;-42
2024/03/25 04:18:29;;;;;;;9.57;1.90;;;15.70;82.30;;;;;;4150431;28;20056;-42
2024/03/25 04:21:13;;;;;;;6.38;1.63;;;15.80;82.40;;;;;;4147130;28;20047;-41
2024/03/25 04:23:53;;;;;;;11.13;1.92;;;15.80;82.20;;;;;;4145788;28;20053;-41
2024/03/25 04:26:33;;;;;;;6.63;1.58;;;15.80;82.30;;;;;;4137034;28;20049;-41
2024/03/25 04:29:12;;;;;;;5.85;1.40;;;15.80;82.40;;;;;;4145680;28;20612;-41
2024/03/25 04:31:53;;;;;;;5.15;1.45;;;15.80;82.20;;;;;;4154463;28;20511;-47
2024/03/25 04:34:33;;;;;;;7.40;1.42;;;15.90;82.20;;;;;;4154158;28;20056;-45
